• Join FlightAware (Why Join?)
  • Login
  • US Flag 
03:52PM EDT


 

Airport Tracker/Info


-or-


 

Live Flight TrackerFlight Track Log ✈ SKW5550 ✈ 10-Oct-2013 ✈ KDEN - KSMF

Flight Track Log - Related Links

Times and Time Zones

All times are in EDT time to prevent confusion due to time zone crossing. See the SKW5550 flight status page for this flight to view local times or setup timezone preferences in your user account.

Time Position Orientation Groundspeed Altitude Reporting Facility
EDT Latitude Longitude Course Direction KTS MPH feet Rate Location/Type
06:14PM 39.8500 -104.7500 288° West 191 220 6,500  Level Denver TRACON
06:15PM 39.8667 -104.8167 288° West 223 257 7,800 1,380 Climbing Denver TRACON
06:16PM 39.8833 -104.8833 288° West 252 290 9,200 1,620 Climbing Denver TRACON
06:17PM 39.9000 -105.0000 281° West 283 326 11,300 1,260 Climbing Denver TRACON
06:18PM 39.9167 -105.0833 285° West 326 375 11,700 720 Climbing Denver TRACON
06:19PM 39.9167 -105.1450 270° West 334 384 12,300 1,620 Climbing Denver Center
06:20PM 39.9306 -105.2792 278° West 347 399 14,300 1,680 Climbing Denver Center
06:21PM 39.9444 -105.4019 278° West 345 397 15,800 1,200 Climbing Denver Center
06:22PM 39.9608 -105.5369 279° West 352 405 16,800 960 Climbing Denver Center
06:23PM 39.9747 -105.6675 278° West 363 418 17,800 1,080 Climbing Denver Center
06:24PM 39.9742 -105.8100 270° West 367 422 19,100 1,020 Climbing Denver Center
06:25PM 39.9753 -105.9478 271° West 363 418 20,000 720 Climbing Denver Center
06:26PM 39.9828 -106.0864 274° West 380 437 20,600 600 Climbing Denver Center
06:27PM 39.9919 -106.2256 275° West 387 445 21,300 540 Climbing Denver Center
06:28PM 39.9994 -106.3667 274° West 391 450 21,800 600 Climbing Denver Center
06:29PM 40.0147 -106.5247 277° West 404 465 22,600 720 Climbing Denver Center
06:30PM 40.0369 -106.6636 282° West 408 470 23,300 780 Climbing Denver Center
06:31PM 40.0622 -106.8294 281° West 417 480 24,300 840 Climbing Denver Center
06:32PM 40.0839 -106.9708 281° West 416 479 25,100 660 Climbing Denver Center
06:33PM 40.1086 -107.1378 281° West 420 483 25,700 480 Climbing Denver Center
06:34PM 40.1308 -107.2836 281° West 426 490 26,200 480 Climbing Denver Center
06:35PM 40.1569 -107.4561 281° West 434 499 26,700 480 Climbing Denver Center
06:36PM 40.1783 -107.6067 281° West 439 505 27,200 480 Climbing Denver Center
06:37PM 40.2044 -107.7836 281° West 444 511 27,800 480 Climbing Denver Center
06:38PM 40.2258 -107.9336 281° West 442 509 28,300 480 Climbing Denver Center
06:39PM 40.2508 -108.1122 280° West 448 516 28,800 480 Climbing Denver Center
06:40PM 40.2728 -108.2642 281° West 446 513 29,300 480 Climbing Denver Center
06:41PM 40.2942 -108.4153 281° West 447 514 29,800 480 Climbing Salt Lake Center
06:42PM 40.3144 -108.5733 280° West 454 522 30,300 480 Climbing Salt Lake Center
06:43PM 40.3392 -108.7553 280° West 454 522 30,800 480 Climbing Salt Lake Center
06:44PM 40.3600 -108.9094 280° West 453 521 31,300 480 Climbing Salt Lake Center
06:45PM 40.3847 -109.0906 280° West 454 522 31,900 360 Climbing Salt Lake Center
06:46PM 40.4042 -109.2458 279° West 454 522 32,100 300 Climbing Salt Lake Center
06:47PM 40.4244 -109.4028 280° West 456 525 32,600 480 Climbing Salt Lake Center
06:48PM 40.4483 -109.5839 280° West 453 521 33,200 480 Climbing Salt Lake Center
06:49PM 40.4672 -109.7367 279° West 446 513 33,700 360 Climbing Salt Lake Center
06:50PM 40.4881 -109.9114 279° West 437 503 34,000 120 Climbing Salt Lake Center
06:51PM 40.5061 -110.0633 279° West 439 505 34,000  Level Salt Lake Center
06:53PM 40.5228 -110.2442 277° West 444 511 34,000  Level Salt Lake Center
06:54PM 40.5386 -110.3992 278° West 447 514 34,000  Level Salt Lake Center
06:55PM 40.5553 -110.5817 277° West 450 518 34,000  Level Salt Lake Center
06:56PM 40.5694 -110.7350 277° West 451 519 34,000  Level Salt Lake Center
06:57PM 40.5847 -110.8981 277° West 451 519 34,000  Level Salt Lake Center
06:58PM 40.5997 -111.0608 277° West 449 517 34,000  Level Salt Lake Center
06:59PM 40.6142 -111.2228 277° West 447 514 34,000  Level Salt Lake Center
07:00PM 40.6311 -111.4169 277° West 443 510 34,000  Level Salt Lake Center
07:01PM 40.6450 -111.5792 276° West 445 512 34,000  Level Salt Lake Center
07:02PM 40.6578 -111.7394 276° West 439 505 34,000  Level Salt Lake Center
07:03PM 40.6714 -111.9006 276° West 439 505 34,000  Level Salt Lake Center
07:04PM 40.6839 -112.0600 276° West 436 502 34,000  Level Salt Lake Center
07:05PM 40.6967 -112.2197 276° West 436 502 34,000  Level Salt Lake Center
07:06PM 40.7092 -112.3778 276° West 433 498 34,000  Level Salt Lake Center
07:07PM 40.7214 -112.5356 276° West 432 497 34,000  Level Salt Lake Center
07:08PM 40.7228 -112.6933 271° West 430 495 34,000  Level Salt Lake Center
07:09PM 40.7247 -112.8803 271° West 424 488 34,000  Level Salt Lake Center
07:10PM 40.7239 -113.0372 270° West 427 491 34,000  Level Salt Lake Center
07:11PM 40.7253 -113.1919 271° West 424 488 34,000  Level Salt Lake Center
07:12PM 40.7275 -113.3458 271° West 421 484 34,000  Level Salt Lake Center
07:13PM 40.7264 -113.4994 270° West 422 486 34,000  Level Salt Lake Center
07:14PM 40.7272 -113.6511 270° West 418 481 34,000  Level Salt Lake Center
07:15PM 40.7256 -113.8042 269° West 418 481 34,000  Level Salt Lake Center
07:16PM 40.7192 -113.9872 267° West 417 480 34,000  Level Salt Lake Center
07:17PM 40.7136 -114.1400 267° West 418 481 34,000  Level Salt Lake Center
07:18PM 40.7086 -114.2922 268° West 418 481 34,000  Level Salt Lake Center
07:19PM 40.7039 -114.4444 268° West 417 480 34,000  Level Salt Lake Center
07:20PM 40.7003 -114.5967 268° West 417 480 34,000  Level Salt Lake Center
07:21PM 40.6928 -114.7481 266° West 416 479 34,000  Level Salt Lake Center
07:22PM 40.6853 -114.9042 266° West 417 480 34,000  Level Salt Lake Center
07:23PM 40.6786 -115.0742 267° West 416 479 34,000  Level Salt Lake Center
07:24PM 40.6703 -115.2172 266° West 412 474 34,000  Level Salt Lake Center
07:25PM 40.6667 -115.3867 268° West 414 476 34,000  Level Salt Lake Center
07:26PM 40.6650 -115.5311 269° West 413 475 34,000  Level Salt Lake Center
07:28PM 40.6639 -115.6997 270° West 412 474 34,000  Level Salt Lake Center
07:29PM 40.6622 -115.8450 269° West 415 478 34,000  Level Salt Lake Center
07:30PM 40.6639 -116.0136 271° West 413 475 34,000  Level Salt Lake Center
07:31PM 40.6542 -116.1572 265° West 414 476 34,000  Level Salt Lake Center
07:32PM 40.6278 -116.3008 256° West 421 484 34,000  Level Salt Lake Center
07:33PM 40.6067 -116.4697 261° West 420 483 34,000  Level Salt Lake Center
07:34PM 40.5944 -116.6144 264° West 419 482 34,000  Level Salt Lake Center
07:35PM 40.5808 -116.7825 264° West 418 481 34,000  Level Salt Lake Center
07:36PM 40.5664 -116.9244 262° West 417 480 34,000  Level Salt Lake Center
07:37PM 40.5111 -117.0797 245° Southwest 426 490 34,000  Level Salt Lake Center
07:38PM 40.4539 -117.2347 244° Southwest 427 491 34,000  Level Salt Lake Center
07:39PM 40.4050 -117.3697 245° Southwest 428 493 34,000  Level Salt Lake Center
07:40PM 40.3561 -117.5017 244° Southwest 425 489 34,000  Level Salt Lake Center
07:41PM 40.2981 -117.6583 244° Southwest 427 491 34,000  Level Salt Lake Center
07:42PM 40.2483 -117.7919 244° Southwest 428 493 34,000  Level Salt Lake Center
07:43PM 40.1897 -117.9492 244° Southwest 431 496 34,000  Level Salt Lake Center
07:44PM 40.1589 -118.0908 254° West 423 487 34,000  Level Salt Lake Center
07:45PM 40.1228 -118.2561 254° West 424 488 34,000  Level Salt Lake Center
07:46PM 40.0928 -118.3997 255° West 428 493 34,000  Level Salt Lake Center
07:47PM 40.0558 -118.5636 254° West 423 487 34,000  Level Salt Lake Center
07:48PM 40.0247 -118.7133 255° West 423 487 34,000 -180 Level Salt Lake Center
07:49PM 39.9936 -118.8611 255° West 425 489 33,700 -660 Descending Salt Lake Center
07:50PM 39.9594 -119.0108 253° West 432 497 32,700 -1,020 Descending Salt Lake Center
07:51PM 39.9250 -119.1614 253° West 436 502 31,700 -1,020 Descending Salt Lake Center
07:52PM 39.8728 -119.3058 245° Southwest 452 520 30,700 -1,080 Descending Salt Lake Center
07:53PM 39.7953 -119.4744 239° Southwest 456 525 29,500 -1,020 Descending Salt Lake Center
07:55PM 39.7158 -119.6458 239° Southwest 459 528 28,300 -1,020 Descending Oakland Center
07:56PM 39.6375 -119.8175 239° Southwest 462 532 27,100 -1,080 Descending Oakland Center
07:57PM 39.5714 -119.9583 239° Southwest 462 532 26,100 -1,020 Descending Oakland Center
07:58PM 39.5069 -120.0989 239° Southwest 458 527 25,100 -1,020 Descending Oakland Center
07:59PM 39.4389 -120.2422 238° Southwest 452 520 24,100 -960 Descending Oakland Center
08:00PM 39.3739 -120.3811 239° Southwest 452 520 23,100 -1,020 Descending Oakland Center
08:01PM 39.3092 -120.5181 239° Southwest 449 517 22,000 -1,080 Descending Oakland Center
08:02PM 39.2439 -120.6539 238° Southwest 448 516 21,000 -1,020 Descending Oakland Center
08:03PM 39.1797 -120.7875 238° Southwest 443 510 20,000 -1,080 Descending Oakland Center
08:04PM 39.1047 -120.9458 239° Southwest 437 503 18,800 -1,680 Descending Oakland Center
08:05PM 39.0444 -121.0731 239° Southwest 425 489 16,600 -2,340 Descending Oakland Center
08:06PM 39.0000 -121.1667 239° Southwest 422 486 14,800 -2,580 Descending Northern Cal TRACON
08:07PM 38.9500 -121.2833 241° Southwest 381 438 12,300 -2,520 Descending Northern Cal TRACON
08:08PM 38.9333 -121.3833 258° West 300 345 9,800 -2,700 Descending Northern Cal TRACON
08:09PM 38.9500 -121.4667 284° West 273 314 7,200 -2,820 Descending Northern Cal TRACON
08:10PM 38.9167 -121.5333 237° Southwest 267 307 4,500 -2,220 Descending Northern Cal TRACON
08:11PM 38.8500 -121.5667 201° Southwest 239 275 2,800 -1,440 Descending Northern Cal TRACON
08:12PM 38.7833 -121.5833 191° South 195 224 1,500 -1,020 Descending Northern Cal TRACON
08:13PM 38.7500 -121.5833 180° South 149 171 800 -540 Descending Northern Cal TRACON
08:14PM 38.6833 -121.5817 179° South 166 191 200 -420 Descending Oakland Center
08:16PM 38.6833 -121.5833 191° South  Level FlightAware Approximate
08:23PM 38.6954 -121.5908 191° South  Level Estimated